Time;durP1;ratioP1;P1;durP2;ratioP2;P2;SDS_P1;SDS_P2;PMS_P1;PMS_P2;Temp;Humidity;BMP_temperature;BMP_pressure;BME280_temperature;BME280_humidity;BME280_pressure;Samples;Min_cycle;Max_cycle;Signal;HPM_P1;HPM_P2
2022/12/22 03:28:05;;;;;;;;;;;7.60;99.90;;;;;;4954070;28;1922;-64
2022/12/22 03:30:31;;;;;;;;;;;7.70;99.90;;;;;;4972588;28;1016;-64
2022/12/22 03:32:57;;;;;;;;;;;7.80;99.90;;;;;;4948257;29;1103;-64
2022/12/22 03:35:23;;;;;;;;;;;7.90;99.90;;;;;;4952611;29;1076;-64
2022/12/22 03:37:48;;;;;;;;;;;7.80;99.90;;;;;;4953163;29;1313;-64
2022/12/22 03:40:14;;;;;;;;;;;7.80;99.90;;;;;;4935204;29;1931;-65
2022/12/22 03:48:08;;;;;;;;;;;7.80;99.90;;;;;;4940958;29;1104;-64
2022/12/22 03:50:34;;;;;;;;;;;7.80;99.90;;;;;;4953697;28;1160;-65
2022/12/22 03:52:59;;;;;;;;;;;7.80;99.90;;;;;;4937221;29;1609;-64
2022/12/22 03:55:25;;;;;;;;;;;7.80;99.90;;;;;;4952221;29;1156;-65
2022/12/22 03:57:51;;;;;;;;;;;7.80;99.90;;;;;;4952625;29;1112;-64
2022/12/22 04:00:16;;;;;;;;;;;7.80;99.90;;;;;;4953330;28;1922;-65
2022/12/22 04:02:42;;;;;;;;;;;7.80;99.90;;;;;;4969879;28;1229;-65
2022/12/22 04:05:08;;;;;;;;;;;7.80;99.90;;;;;;4952446;29;1017;-65
2022/12/22 04:07:33;;;;;;;;;;;7.00;99.90;;;;;;4952234;28;1112;-64
2022/12/22 04:12:55;;;;;;;;;;;7.70;99.90;;;;;;4961055;28;1052;-65
2022/12/22 04:15:22;;;;;;;;;;;7.80;99.90;;;;;;4951953;29;1116;-65
2022/12/22 04:17:48;;;;;;;;;;;7.80;99.90;;;;;;4952230;28;1021;-65
2022/12/22 04:20:13;;;;;;;;;;;7.80;99.90;;;;;;4951971;29;1907;-65
2022/12/22 04:22:39;;;;;;;;;;;7.80;99.90;;;;;;4951638;29;1127;-65
2022/12/22 04:25:05;;;;;;;;;;;7.80;99.90;;;;;;4952294;29;1092;-65
2022/12/22 04:27:31;;;;;;;;;;;7.80;99.90;;;;;;4962678;28;1122;-65
2022/12/22 04:29:56;;;;;;;;;;;7.90;99.90;;;;;;4970940;28;1127;-65
2022/12/22 04:32:22;;;;;;;;;;;7.80;99.90;;;;;;4971404;28;1122;-65
2022/12/22 04:34:47;;;;;;;;;;;7.80;99.90;;;;;;4969441;28;1151;-65
2022/12/22 04:37:13;;;;;;;;;;;7.80;99.90;;;;;;4968535;28;1172;-65
2022/12/22 04:39:39;;;;;;;;;;;7.80;99.90;;;;;;4951854;29;1911;-65
2022/12/22 04:42:04;;;;;;;;;;;7.80;99.90;;;;;;4951187;28;1103;-65
2022/12/22 04:44:30;;;;;;;;;;;7.80;99.90;;;;;;4930331;29;1116;-65
2022/12/22 04:46:55;;;;;;;;;;;7.70;99.90;;;;;;4943775;29;1116;-65
2022/12/22 04:49:21;;;;;;;;;;;7.80;99.90;;;;;;4934278;29;1140;-65
2022/12/22 04:51:47;;;;;;;;;;;7.80;99.90;;;;;;4951026;28;1496;-65
2022/12/22 04:54:12;;;;;;;;;;;7.70;99.90;;;;;;4951867;28;1282;-65
2022/12/22 04:56:38;;;;;;;;;;;7.70;99.90;;;;;;4970804;28;1103;-65
2022/12/22 04:59:03;;;;;;;;;;;7.80;99.90;;;;;;4970328;28;1918;-65
2022/12/22 05:01:29;;;;;;;;;;;7.70;99.90;;;;;;4963601;28;1103;-65
2022/12/22 05:03:55;;;;;;;;;;;7.80;99.90;;;;;;4967516;28;1108;-65
2022/12/22 05:06:20;;;;;;;;;;;7.80;99.90;;;;;;4960511;28;1119;-65
2022/12/22 05:08:46;;;;;;;;;;;8.00;99.90;;;;;;4968955;28;1093;-64
2022/12/22 05:11:11;;;;;;;;;;;7.90;99.90;;;;;;4957759;28;1200;-63
2022/12/22 05:13:38;;;;;;;;;;;7.90;99.90;;;;;;4951067;29;1080;-64
2022/12/22 05:16:07;;;;;;;;;;;7.90;99.90;;;;;;4951331;29;1257;-64
2022/12/22 05:18:33;;;;;;;;;;;8.00;99.90;;;;;;4948458;28;1911;-64
2022/12/22 05:21:01;;;;;;;;;;;8.00;99.90;;;;;;4962503;28;1191;-65
2022/12/22 05:23:27;;;;;;;;;;;8.10;99.90;;;;;;4970193;28;1159;-64
2022/12/22 05:25:52;;;;;;;;;;;8.00;99.90;;;;;;4969748;28;1143;-64
2022/12/22 05:28:18;;;;;;;;;;;8.10;99.90;;;;;;4965515;28;1131;-64
2022/12/22 05:30:43;;;;;;;;;;;8.10;99.90;;;;;;4953277;28;1139;-64
2022/12/22 05:33:09;;;;;;;;;;;8.20;99.90;;;;;;4969707;28;1080;-64
2022/12/22 05:35:35;;;;;;;;;;;8.10;99.90;;;;;;4970578;28;1132;-64
2022/12/22 05:38:00;;;;;;;;;;;8.20;99.90;;;;;;4953754;28;1915;-64
2022/12/22 05:40:26;;;;;;;;;;;8.30;99.90;;;;;;4950279;29;1104;-64
2022/12/22 05:42:52;;;;;;;;;;;8.30;99.90;;;;;;4951056;29;1116;-64
2022/12/22 05:45:18;;;;;;;;;;;8.20;99.90;;;;;;4951032;28;1290;-64
2022/12/22 05:47:45;;;;;;;;;;;8.20;99.90;;;;;;4967479;28;1112;-64
2022/12/22 05:50:12;;;;;;;;;;;8.20;99.90;;;;;;4969035;28;1069;-64
2022/12/22 05:52:38;;;;;;;;;;;8.10;99.90;;;;;;4955291;28;1395;-64
2022/12/22 05:55:03;;;;;;;;;;;8.10;99.90;;;;;;4952695;28;1102;-64
2022/12/22 05:57:29;;;;;;;;;;;8.10;99.90;;;;;;4972381;28;1144;-64
2022/12/22 05:59:55;;;;;;;;;;;8.10;99.90;;;;;;4956622;28;1975;-64
2022/12/22 06:02:20;;;;;;;;;;;8.00;99.90;;;;;;4973215;28;1151;-64
2022/12/22 06:04:46;;;;;;;;;;;8.00;99.90;;;;;;4967400;28;1217;-64
2022/12/22 06:07:12;;;;;;;;;;;7.90;99.90;;;;;;4956482;28;1877;-64
2022/12/22 06:09:37;;;;;;;;;;;7.80;99.90;;;;;;4965266;28;1166;-64
2022/12/22 06:12:03;;;;;;;;;;;7.80;99.90;;;;;;4959239;28;1183;-64
2022/12/22 06:14:29;;;;;;;;;;;7.80;99.90;;;;;;4974137;28;1115;-64
2022/12/22 06:16:54;;;;;;;;;;;7.70;99.90;;;;;;4966854;28;1147;-64
2022/12/22 06:19:20;;;;;;;;;;;7.70;99.90;;;;;;4954405;29;1974;-64
2022/12/22 06:21:46;;;;;;;;;;;7.70;99.90;;;;;;4954008;28;1097;-64
2022/12/22 06:24:11;;;;;;;;;;;7.70;99.90;;;;;;4954255;29;1072;-64
2022/12/22 06:26:37;;;;;;;;;;;7.60;99.90;;;;;;4954320;29;1136;-64
2022/12/22 06:29:03;;;;;;;;;;;7.60;99.90;;;;;;4953980;29;1147;-64
2022/12/22 06:31:28;;;;;;;;;;;7.50;99.90;;;;;;4954475;28;1162;-64
2022/12/22 06:33:54;;;;;;;;;;;7.40;99.90;;;;;;4973617;28;1123;-64
2022/12/22 06:36:19;;;;;;;;;;;7.30;99.90;;;;;;4972731;28;1120;-64
2022/12/22 06:38:45;;;;;;;;;;;7.30;99.90;;;;;;4958732;28;1988;-64
2022/12/22 06:41:11;;;;;;;;;;;7.30;99.90;;;;;;4953445;28;1124;-64
2022/12/22 06:43:36;;;;;;;;;;;7.30;99.90;;;;;;4941957;29;1121;-64
2022/12/22 06:46:02;;;;;;;;;;;7.20;99.90;;;;;;4954235;28;1120;-64
2022/12/22 06:48:27;;;;;;;;;;;7.00;99.90;;;;;;4946310;28;1225;-64
2022/12/22 06:50:58;;;;;;;;;;;6.80;99.90;;;;;;4971391;28;1379;-64
2022/12/22 06:53:24;;;;;;;;;;;6.70;99.90;;;;;;4954049;29;1588;-64
2022/12/22 06:55:49;;;;;;;;;;;6.70;99.90;;;;;;4953203;28;1121;-64
2022/12/22 06:58:15;;;;;;;;;;;6.50;99.90;;;;;;4953426;29;1914;-64
2022/12/22 07:00:41;;;;;;;;;;;6.30;99.90;;;;;;4953973;29;1179;-64
2022/12/22 07:03:08;;;;;;;;;;;6.20;99.90;;;;;;4958522;28;1166;-64
2022/12/22 07:05:33;;;;;;;;;;;6.00;99.90;;;;;;4966701;28;1150;-64
2022/12/22 07:07:59;;;;;;;;;;;6.00;99.90;;;;;;4949526;29;1356;-64
2022/12/22 07:13:18;;;;;;;;;;;6.00;99.90;;;;;;4947266;29;1038;-64
2022/12/22 07:15:44;;;;;;;;;;;6.10;99.90;;;;;;4961601;28;1235;-64
2022/12/22 07:18:11;;;;;;;;;;;6.00;99.90;;;;;;4955312;28;1991;-64
2022/12/22 07:20:36;;;;;;;;;;;6.00;99.90;;;;;;4953517;29;1080;-64
2022/12/22 07:23:02;;;;;;;;;;;5.90;99.90;;;;;;4937341;28;1112;-64
2022/12/22 07:25:28;;;;;;;;;;;5.90;99.90;;;;;;4954701;28;1151;-64
2022/12/22 07:27:53;;;;;;;;;;;6.00;99.90;;;;;;4972748;28;1139;-64
2022/12/22 07:30:19;;;;;;;;;;;6.10;99.90;;;;;;4955242;28;1049;-64
2022/12/22 07:32:44;;;;;;;;;;;6.00;99.90;;;;;;4957570;28;976;-64
2022/12/22 07:35:10;;;;;;;;;;;6.00;99.90;;;;;;4953410;29;1167;-64
2022/12/22 07:37:36;;;;;;;;;;;6.00;99.90;;;;;;4953280;29;1424;-64
2022/12/22 07:40:01;;;;;;;;;;;5.90;99.90;;;;;;4952097;28;2019;-64
2022/12/22 07:42:43;;;;;;;;;;;5.90;99.90;;;;;;4967453;28;1001;-64
2022/12/22 07:45:11;;;;;;;;;;;5.80;99.90;;;;;;4952913;28;1261;-64
2022/12/22 07:47:36;;;;;;;;;;;5.80;99.90;;;;;;4952263;29;1112;-64
2022/12/22 07:52:47;;;;;;;;;;;6.10;99.90;;;;;;4955836;28;1375;-64
2022/12/22 07:55:13;;;;;;;;;;;6.30;99.90;;;;;;4934711;29;1168;-65
2022/12/22 07:57:39;;;;;;;;;;;6.40;99.90;;;;;;4953122;28;1187;-64
2022/12/22 08:00:06;;;;;;;;;;;6.50;99.90;;;;;;4942472;29;1910;-64
2022/12/22 08:02:37;;;;;;;;;;;6.40;99.90;;;;;;4952338;28;1154;-64
2022/12/22 08:05:03;;;;;;;;;;;6.40;99.90;;;;;;4955242;28;1060;-64
2022/12/22 08:07:29;;;;;;;;;;;6.30;99.90;;;;;;4952954;28;1315;-64
2022/12/22 08:09:54;;;;;;;;;;;6.20;99.90;;;;;;4952342;29;926;-64
2022/12/22 08:12:20;;;;;;;;;;;6.20;99.90;;;;;;4957735;28;1118;-64
2022/12/22 08:14:47;;;;;;;;;;;6.10;99.90;;;;;;4942408;28;1235;-64
2022/12/22 08:17:12;;;;;;;;;;;6.10;99.90;;;;;;4940115;29;1290;-64
2022/12/22 08:19:38;;;;;;;;;;;6.10;99.90;;;;;;4965423;28;1998;-64
2022/12/22 08:22:04;;;;;;;;;;;6.10;99.90;;;;;;4963838;28;1125;-64
2022/12/22 08:24:29;;;;;;;;;;;6.10;99.90;;;;;;4951472;28;1100;-64
2022/12/22 08:26:57;;;;;;;;;;;6.00;99.90;;;;;;4937846;28;3782;-64
2022/12/22 08:29:27;;;;;;;;;;;6.10;99.90;;;;;;4943030;29;3757;-64
2022/12/22 08:31:53;;;;;;;;;;;6.10;99.90;;;;;;4951224;29;1235;-64
2022/12/22 08:34:19;;;;;;;;;;;6.10;99.90;;;;;;4955057;28;1186;-64
2022/12/22 08:36:47;;;;;;;;;;;6.10;99.90;;;;;;4951393;29;1108;-64
2022/12/22 08:39:14;;;;;;;;;;;6.10;99.90;;;;;;4951297;28;2339;-64
2022/12/22 08:41:49;;;;;;;;;;;6.20;99.90;;;;;;4951677;29;1266;-64
2022/12/22 08:44:15;;;;;;;;;;;6.10;99.90;;;;;;4939837;29;1260;-64
2022/12/22 08:46:41;;;;;;;;;;;6.10;99.90;;;;;;4952585;28;1218;-64
2022/12/22 08:49:06;;;;;;;;;;;6.20;99.90;;;;;;4951056;29;1274;-64
2022/12/22 08:51:32;;;;;;;;;;;6.30;99.90;;;;;;4951470;28;1284;-64
2022/12/22 08:53:58;;;;;;;;;;;6.20;99.90;;;;;;4950838;29;1730;-65
2022/12/22 08:56:23;;;;;;;;;;;6.30;99.90;;;;;;4952827;28;1202;-64
2022/12/22 08:58:49;;;;;;;;;;;6.20;99.90;;;;;;4950152;29;1918;-64
2022/12/22 09:01:15;;;;;;;;;;;6.20;99.90;;;;;;4950889;28;1214;-64
2022/12/22 09:03:41;;;;;;;;;;;6.20;99.90;;;;;;4952574;28;1223;-64
2022/12/22 09:06:07;;;;;;;;;;;6.20;99.90;;;;;;4941492;29;1219;-64
2022/12/22 09:08:32;;;;;;;;;;;6.20;99.90;;;;;;4951658;28;1160;-64
2022/12/22 09:11:01;;;;;;;;;;;6.20;99.90;;;;;;4950437;29;1251;-64
2022/12/22 09:13:27;;;;;;;;;;;6.20;99.90;;;;;;4952471;28;1266;-64
2022/12/22 09:15:53;;;;;;;;;;;6.10;99.90;;;;;;4950859;29;1448;-64
2022/12/22 09:18:18;;;;;;;;;;;6.00;99.90;;;;;;4949911;28;1983;-65
2022/12/22 09:20:44;;;;;;;;;;;5.90;99.90;;;;;;4941675;29;1271;-64
2022/12/22 09:23:09;;;;;;;;;;;5.90;99.90;;;;;;4951005;28;1237;-64
2022/12/22 09:25:35;;;;;;;;;;;5.90;99.90;;;;;;4950987;29;1127;-66
2022/12/22 09:28:01;;;;;;;;;;;5.90;99.90;;;;;;4950927;28;1121;-64
2022/12/22 09:30:26;;;;;;;;;;;5.80;99.90;;;;;;4950889;29;1132;-64
2022/12/22 09:32:53;;;;;;;;;;;5.90;99.90;;;;;;4950483;29;1120;-64
2022/12/22 09:35:19;;;;;;;;;;;5.90;99.90;;;;;;4951086;28;1112;-64
2022/12/22 09:37:44;;;;;;;;;;;5.80;99.90;;;;;;4950765;29;1340;-64
2022/12/22 09:40:10;;;;;;;;;;;5.80;99.90;;;;;;4950535;29;1911;-64
2022/12/22 09:42:36;;;;;;;;;;;5.70;99.90;;;;;;4952900;28;1163;-64
2022/12/22 09:45:02;;;;;;;;;;;5.80;99.90;;;;;;4948182;29;1231;-64
2022/12/22 09:47:32;;;;;;;;;;;5.80;99.90;;;;;;4950159;29;1127;-64
2022/12/22 09:49:58;;;;;;;;;;;5.80;99.90;;;;;;4951006;29;1108;-64
2022/12/22 09:52:39;;;;;;;;;;;5.90;99.90;;;;;;4954220;28;1308;-64
2022/12/22 09:55:12;;;;;;;;;;;6.00;99.90;;;;;;4940513;29;1302;-64
2022/12/22 09:57:37;;;;;;;;;;;6.00;99.90;;;;;;4950831;28;1104;-64
2022/12/22 10:00:13;;;;;;;;;;;6.00;99.90;;;;;;4949779;29;1979;-64
2022/12/22 10:02:58;;;;;;;;;;;6.00;99.90;;;;;;4950715;28;1290;-64
2022/12/22 10:05:31;;;;;;;;;;;6.10;99.90;;;;;;4950364;28;1227;-64
2022/12/22 10:08:00;;;;;;;;;;;6.00;99.90;;;;;;4951349;28;1237;-64
2022/12/22 10:10:27;;;;;;;;;;;6.10;99.90;;;;;;4951738;28;1218;-64
2022/12/22 10:12:53;;;;;;;;;;;6.20;99.90;;;;;;4961082;28;1230;-64
2022/12/22 10:15:19;;;;;;;;;;;6.20;99.90;;;;;;4951550;28;1111;-64
2022/12/22 10:17:45;;;;;;;;;;;6.30;99.90;;;;;;4957378;28;970;-65
2022/12/22 10:20:17;;;;;;;;;;;6.30;99.90;;;;;;4937086;28;1992;-65
2022/12/22 10:22:52;;;;;;;;;;;6.40;99.90;;;;;;4965043;28;1096;-65
2022/12/22 10:25:31;;;;;;;;;;;6.40;99.90;;;;;;4950621;28;1123;-65
2022/12/22 10:27:58;;;;;;;;;;;6.50;99.90;;;;;;4949094;28;1274;-65
2022/12/22 10:30:27;;;;;;;;;;;6.60;99.90;;;;;;4947876;28;3232;-65
2022/12/22 10:33:02;;;;;;;;;;;6.80;99.90;;;;;;4950359;29;1108;-65
2022/12/22 10:35:46;;;;;;;;;;;6.90;99.90;;;;;;4959248;28;1203;-65
2022/12/22 10:38:18;;;;;;;;;;;7.00;99.90;;;;;;4959247;28;1910;-65
2022/12/22 10:40:45;;;;;;;;;;;7.10;99.90;;;;;;4952429;28;1301;-65
2022/12/22 10:43:17;;;;;;;;;;;7.40;99.90;;;;;;4954842;28;1237;-65
2022/12/22 10:45:46;;;;;;;;;;;7.50;99.90;;;;;;4953782;28;1210;-65
2022/12/22 10:48:11;;;;;;;;;;;8.30;99.90;;;;;;4952033;29;1220;-65
2022/12/22 10:50:43;;;;;;;;;;;8.20;99.90;;;;;;4968020;28;1107;-65
2022/12/22 10:53:09;;;;;;;;;;;8.40;99.90;;;;;;4953927;28;1629;-65
2022/12/22 10:55:37;;;;;;;;;;;8.50;99.90;;;;;;4953440;28;1431;-65
2022/12/22 10:58:08;;;;;;;;;;;8.40;99.90;;;;;;4954107;28;1210;-65
2022/12/22 11:00:35;;;;;;;;;;;7.90;99.90;;;;;;4955800;28;1907;-65
2022/12/22 11:03:01;;;;;;;;;;;8.00;99.90;;;;;;4969910;28;1234;-65
2022/12/22 11:05:27;;;;;;;;;;;8.10;99.90;;;;;;4959029;28;1228;-65
2022/12/22 11:07:54;;;;;;;;;;;8.30;99.90;;;;;;4972539;28;1392;-65
2022/12/22 11:10:28;;;;;;;;;;;8.30;99.90;;;;;;4972273;28;1174;-65
2022/12/22 11:13:15;;;;;;;;;;;8.00;99.90;;;;;;4967758;28;1150;-64
2022/12/22 11:15:47;;;;;;;;;;;7.80;99.90;;;;;;4952327;29;1192;-65
2022/12/22 11:18:14;;;;;;;;;;;7.60;99.90;;;;;;4948032;28;1981;-65
2022/12/22 11:20:47;;;;;;;;;;;7.40;99.90;;;;;;4972693;28;1091;-65
2022/12/22 11:23:24;;;;;;;;;;;7.60;99.90;;;;;;4971109;28;1199;-65
2022/12/22 11:25:51;;;;;;;;;;;7.50;99.90;;;;;;4972076;28;1178;-65
2022/12/22 11:28:25;;;;;;;;;;;7.80;99.90;;;;;;4972152;28;1132;-64
2022/12/22 11:31:06;;;;;;;;;;;8.10;99.90;;;;;;4965195;28;1111;-64
2022/12/22 11:33:41;;;;;;;;;;;8.30;99.90;;;;;;4971800;28;1138;-65
2022/12/22 11:36:14;;;;;;;;;;;8.20;99.90;;;;;;4972401;28;1107;-65
2022/12/22 11:38:50;;;;;;;;;;;8.00;99.90;;;;;;4957892;28;1994;-65
2022/12/22 11:41:31;;;;;;;;;;;8.10;99.90;;;;;;4953096;28;1127;-64
2022/12/22 11:44:08;;;;;;;;;;;8.70;99.90;;;;;;4935468;29;1029;-65
2022/12/22 11:46:49;;;;;;;;;;;9.30;99.90;;;;;;4952480;29;1080;-65
2022/12/22 11:49:23;;;;;;;;;;;9.70;99.90;;;;;;4955852;28;1156;-65
2022/12/22 11:51:49;;;;;;;;;;;10.10;99.90;;;;;;4963121;28;1330;-65
2022/12/22 11:54:23;;;;;;;;;;;10.40;99.90;;;;;;4969440;28;1135;-65
2022/12/22 11:56:55;;;;;;;;;;;10.30;99.90;;;;;;4969284;28;1107;-65
2022/12/22 11:59:35;;;;;;;;;;;9.70;99.90;;;;;;4971460;28;2013;-65
2022/12/22 12:02:19;;;;;;;;;;;8.70;99.90;;;;;;4957612;28;1242;-65
2022/12/22 12:04:57;;;;;;;;;;;8.60;99.90;;;;;;4970600;28;1432;-65
2022/12/22 12:07:33;;;;;;;;;;;8.90;99.90;;;;;;4954388;28;1131;-65
2022/12/22 12:10:13;;;;;;;;;;;9.10;99.90;;;;;;4952851;29;1119;-65
2022/12/22 12:12:47;;;;;;;;;;;9.00;99.90;;;;;;4952429;29;1103;-65
2022/12/22 12:15:18;;;;;;;;;;;9.10;99.90;;;;;;4955330;28;1147;-65
2022/12/22 12:18:00;;;;;;;;;;;9.20;99.90;;;;;;4959139;28;1068;-65
2022/12/22 12:20:26;;;;;;;;;;;9.60;99.90;;;;;;4952137;29;1966;-65
2022/12/22 12:23:06;;;;;;;;;;;10.30;99.90;;;;;;4951738;29;1183;-66
2022/12/22 12:25:43;;;;;;;;;;;10.90;99.90;;;;;;4952649;29;1108;-65
2022/12/22 12:28:08;;;;;;;;;;;11.40;99.90;;;;;;4951425;29;1092;-65
2022/12/22 12:30:40;;;;;;;;;;;11.40;99.90;;;;;;4943827;28;3369;-65
2022/12/22 12:33:12;;;;;;;;;;;11.20;99.90;;;;;;4951970;28;1146;-65
2022/12/22 12:35:50;;;;;;;;;;;11.30;99.90;;;;;;4970858;28;1103;-65
2022/12/22 12:38:16;;;;;;;;;;;11.30;99.90;;;;;;4960713;28;1922;-65
2022/12/22 12:40:49;;;;;;;;;;;11.30;99.90;;;;;;4951898;29;1180;-65
2022/12/22 12:43:15;;;;;;;;;;;11.50;99.90;;;;;;4952078;28;1274;-65
2022/12/22 12:45:42;;;;;;;;;;;11.20;99.90;;;;;;4952511;28;1372;-65
2022/12/22 12:48:22;;;;;;;;;;;11.30;99.90;;;;;;4952287;28;1206;-65
2022/12/22 12:50:49;;;;;;;;;;;11.20;99.90;;;;;;4950012;28;1308;-65
2022/12/22 12:53:15;;;;;;;;;;;11.30;99.90;;;;;;4951957;29;1593;-65
2022/12/22 12:55:43;;;;;;;;;;;11.00;99.90;;;;;;4951238;29;1175;-66
2022/12/22 12:58:10;;;;;;;;;;;10.50;99.90;;;;;;4951628;29;1121;-65
2022/12/22 13:00:36;;;;;;;;;;;10.10;99.90;;;;;;4953101;28;1911;-65
2022/12/22 13:03:03;;;;;;;;;;;9.30;99.90;;;;;;4955023;28;1290;-65
2022/12/22 13:05:35;;;;;;;;;;;8.90;99.90;;;;;;4970652;28;1001;-65
2022/12/22 13:08:05;;;;;;;;;;;8.50;99.90;;;;;;4964524;28;1143;-65
2022/12/22 13:10:31;;;;;;;;;;;8.20;99.90;;;;;;4968580;28;1120;-65
2022/12/22 13:12:57;;;;;;;;;;;8.20;99.90;;;;;;4970729;28;1240;-65
2022/12/22 13:15:29;;;;;;;;;;;8.10;99.90;;;;;;4970719;28;1099;-65
2022/12/22 13:17:54;;;;;;;;;;;8.10;99.90;;;;;;4954291;28;3651;-65
2022/12/22 13:20:23;;;;;;;;;;;8.10;99.90;;;;;;4949306;28;3591;-65
2022/12/22 13:22:51;;;;;;;;;;;8.10;99.90;;;;;;4951194;29;3563;-65
2022/12/22 13:25:17;;;;;;;;;;;8.30;99.90;;;;;;4950281;28;1131;-65
2022/12/22 13:27:43;;;;;;;;;;;8.40;99.90;;;;;;4963131;28;1133;-65
2022/12/22 13:30:14;;;;;;;;;;;8.40;99.90;;;;;;4964939;28;1091;-65
2022/12/22 13:32:40;;;;;;;;;;;8.80;99.90;;;;;;4941380;29;1329;-65
2022/12/22 13:35:20;;;;;;;;;;;8.80;99.90;;;;;;4950817;28;3350;-65
2022/12/22 13:37:47;;;;;;;;;;;8.70;99.90;;;;;;4932008;29;1313;-65
2022/12/22 13:40:15;;;;;;;;;;;8.60;99.90;;;;;;4950023;29;1927;-65
2022/12/22 13:42:44;;;;;;;;;;;8.40;99.90;;;;;;4950500;28;1068;-65
2022/12/22 13:45:16;;;;;;;;;;;8.30;99.90;;;;;;4949093;29;1274;-65
2022/12/22 13:47:42;;;;;;;;;;;8.30;99.90;;;;;;4933915;29;1772;-65
2022/12/22 13:50:15;;;;;;;;;;;8.10;99.90;;;;;;4951100;29;1147;-65
2022/12/22 13:52:41;;;;;;;;;;;8.00;99.90;;;;;;4949930;28;1305;-65
2022/12/22 13:55:11;;;;;;;;;;;8.00;99.90;;;;;;4950847;29;1100;-65
2022/12/22 13:57:38;;;;;;;;;;;8.10;99.90;;;;;;4952010;28;1199;-65
2022/12/22 14:00:03;;;;;;;;;;;8.00;99.90;;;;;;4950151;28;1903;-65
2022/12/22 14:02:35;;;;;;;;;;;8.00;99.90;;;;;;4955256;28;1201;-65
2022/12/22 14:05:02;;;;;;;;;;;7.90;99.90;;;;;;4950750;29;1180;-65
2022/12/22 14:07:27;;;;;;;;;;;7.90;99.90;;;;;;4933110;29;1228;-65
2022/12/22 14:09:55;;;;;;;;;;;7.90;99.90;;;;;;4933301;28;1093;-65
2022/12/22 14:12:22;;;;;;;;;;;7.90;99.90;;;;;;4933459;29;1104;-65
2022/12/22 14:14:49;;;;;;;;;;;7.80;99.90;;;;;;4952000;28;1163;-65
2022/12/22 14:17:18;;;;;;;;;;;7.90;99.90;;;;;;4955240;28;1309;-65
2022/12/22 14:19:47;;;;;;;;;;;7.90;99.90;;;;;;4957511;28;1971;-65
2022/12/22 14:22:15;;;;;;;;;;;7.90;99.90;;;;;;4964117;28;1119;-65
2022/12/22 14:24:43;;;;;;;;;;;7.90;99.90;;;;;;4946698;28;1279;-65
2022/12/22 14:27:17;;;;;;;;;;;7.90;99.90;;;;;;4952973;28;1258;-65
2022/12/22 14:29:43;;;;;;;;;;;7.90;99.90;;;;;;4954611;29;1195;-65
2022/12/22 14:32:11;;;;;;;;;;;7.90;99.90;;;;;;4954318;29;1116;-65
2022/12/22 14:34:37;;;;;;;;;;;7.90;99.90;;;;;;4957077;28;1144;-65
2022/12/22 14:37:02;;;;;;;;;;;7.90;99.90;;;;;;4962809;28;1377;-65
2022/12/22 14:39:30;;;;;;;;;;;7.90;99.90;;;;;;4954521;28;1968;-65
2022/12/22 14:41:57;;;;;;;;;;;7.90;99.90;;;;;;4951621;28;1243;-65
2022/12/22 14:44:31;;;;;;;;;;;8.10;99.90;;;;;;4956338;28;1223;-65
2022/12/22 14:47:05;;;;;;;;;;;8.30;99.90;;;;;;4953573;28;1242;-65
2022/12/22 14:49:31;;;;;;;;;;;8.30;99.90;;;;;;4953196;29;1100;-65
2022/12/22 14:52:06;;;;;;;;;;;8.30;99.90;;;;;;4954088;29;1435;-65
2022/12/22 14:54:32;;;;;;;;;;;8.20;99.90;;;;;;4953349;28;1263;-65
2022/12/22 14:57:02;;;;;;;;;;;8.20;99.90;;;;;;4952937;28;1355;-65
2022/12/22 14:59:28;;;;;;;;;;;8.10;99.90;;;;;;4939305;29;1981;-67
2022/12/22 15:01:56;;;;;;;;;;;8.00;99.90;;;;;;4953145;28;1146;-64
2022/12/22 15:04:21;;;;;;;;;;;8.00;99.90;;;;;;4935798;29;1177;-65
2022/12/22 15:06:47;;;;;;;;;;;7.90;99.90;;;;;;4953497;29;1304;-64
2022/12/22 15:09:13;;;;;;;;;;;7.80;99.90;;;;;;4936709;29;1034;-65
2022/12/22 15:11:43;;;;;;;;;;;7.70;99.90;;;;;;4935946;28;1105;-64
2022/12/22 15:14:15;;;;;;;;;;;7.70;99.90;;;;;;4973056;28;1207;-64
2022/12/22 15:16:40;;;;;;;;;;;7.60;99.90;;;;;;4967889;28;1174;-65
2022/12/22 15:19:06;;;;;;;;;;;7.70;99.90;;;;;;4935848;29;1918;-65
2022/12/22 15:21:33;;;;;;;;;;;7.60;99.90;;;;;;4953309;28;1191;-65
2022/12/22 15:23:59;;;;;;;;;;;7.60;99.90;;;;;;4952856;29;1207;-65
2022/12/22 15:26:25;;;;;;;;;;;7.60;99.90;;;;;;4952924;28;942;-64
2022/12/22 15:28:51;;;;;;;;;;;7.60;99.90;;;;;;4953586;29;1120;-65
2022/12/22 15:31:16;;;;;;;;;;;7.60;99.90;;;;;;4967716;28;1251;-64
2022/12/22 15:33:43;;;;;;;;;;;7.50;99.90;;;;;;4972070;28;1138;-65
2022/12/22 15:36:09;;;;;;;;;;;7.50;99.90;;;;;;4972708;28;1154;-65
2022/12/22 15:38:37;;;;;;;;;;;7.40;99.90;;;;;;4952922;28;3302;-64
2022/12/22 15:41:02;;;;;;;;;;;7.40;99.90;;;;;;4951050;28;3647;-65
2022/12/22 15:43:28;;;;;;;;;;;7.40;99.90;;;;;;4950845;29;1107;-64
2022/12/22 15:45:54;;;;;;;;;;;7.40;99.90;;;;;;4952530;29;1154;-65
2022/12/22 15:48:22;;;;;;;;;;;7.40;99.90;;;;;;4961360;28;1173;-65
2022/12/22 15:50:48;;;;;;;;;;;7.40;99.90;;;;;;4958453;28;1297;-64
2022/12/22 15:53:15;;;;;;;;;;;7.40;99.90;;;;;;4935436;29;1578;-64
2022/12/22 15:55:41;;;;;;;;;;;7.40;99.90;;;;;;4952524;28;1104;-64
2022/12/22 15:58:09;;;;;;;;;;;7.30;99.90;;;;;;4962235;28;1123;-64
2022/12/22 16:00:35;;;;;;;;;;;7.30;99.90;;;;;;4971129;28;1910;-64
2022/12/22 16:03:02;;;;;;;;;;;7.30;99.90;;;;;;4967845;28;1197;-65
2022/12/22 16:05:27;;;;;;;;;;;7.30;99.90;;;;;;4952530;28;1186;-64
2022/12/22 16:07:53;;;;;;;;;;;7.30;99.90;;;;;;4951911;29;1108;-64
2022/12/22 16:10:24;;;;;;;;;;;7.30;99.90;;;;;;4950149;29;2518;-64
2022/12/22 16:12:54;;;;;;;;;;;7.30;99.90;;;;;;4951225;29;1589;-64
2022/12/22 16:15:20;;;;;;;;;;;7.30;99.90;;;;;;4952149;28;1414;-64
2022/12/22 16:17:46;;;;;;;;;;;7.30;99.90;;;;;;4952338;29;1022;-64
2022/12/22 16:20:12;;;;;;;;;;;7.30;99.90;;;;;;4934443;29;1906;-64
2022/12/22 16:22:38;;;;;;;;;;;7.40;99.90;;;;;;4952121;28;1156;-64
2022/12/22 16:25:06;;;;;;;;;;;7.30;99.90;;;;;;4969205;28;1182;-64
2022/12/22 16:27:33;;;;;;;;;;;7.30;99.90;;;;;;4968873;28;1378;-64
2022/12/22 16:29:59;;;;;;;;;;;7.30;99.90;;;;;;4952323;29;1079;-65
2022/12/22 16:32:27;;;;;;;;;;;7.20;99.90;;;;;;4934763;29;1134;-64
2022/12/22 16:34:56;;;;;;;;;;;7.20;99.90;;;;;;4951654;29;1147;-64
2022/12/22 16:37:22;;;;;;;;;;;7.20;99.90;;;;;;4951503;28;1155;-64
2022/12/22 16:39:47;;;;;;;;;;;7.20;99.90;;;;;;4951503;28;1968;-65
2022/12/22 16:42:15;;;;;;;;;;;7.20;99.90;;;;;;4946016;28;998;-64
2022/12/22 16:44:41;;;;;;;;;;;7.10;99.90;;;;;;4957054;28;1406;-64
2022/12/22 16:47:16;;;;;;;;;;;7.10;99.90;;;;;;4952016;29;1158;-64
2022/12/22 16:49:43;;;;;;;;;;;7.10;99.90;;;;;;4958523;28;1149;-64
2022/12/22 16:52:14;;;;;;;;;;;7.10;99.90;;;;;;4960355;28;1281;-64
2022/12/22 16:54:40;;;;;;;;;;;7.20;99.90;;;;;;4951456;28;1207;-64
2022/12/22 16:57:07;;;;;;;;;;;7.10;99.90;;;;;;4934121;29;1096;-64
2022/12/22 16:59:32;;;;;;;;;;;7.10;99.90;;;;;;4959743;28;1918;-64
2022/12/22 17:01:58;;;;;;;;;;;7.10;99.90;;;;;;4950943;28;1178;-65
2022/12/22 17:04:27;;;;;;;;;;;7.10;99.90;;;;;;4951785;28;1281;-64
2022/12/22 17:06:53;;;;;;;;;;;7.00;99.90;;;;;;4953956;28;1510;-64
2022/12/22 17:09:23;;;;;;;;;;;7.00;99.90;;;;;;4947735;29;1097;-64
2022/12/22 17:11:48;;;;;;;;;;;7.00;99.90;;;;;;4952673;28;1194;-64
2022/12/22 17:14:19;;;;;;;;;;;7.00;99.90;;;;;;4951308;29;1294;-64
2022/12/22 17:16:45;;;;;;;;;;;7.00;99.90;;;;;;4952259;28;1227;-64
2022/12/22 17:19:10;;;;;;;;;;;7.00;99.90;;;;;;4942790;29;1902;-64
2022/12/22 17:21:36;;;;;;;;;;;7.00;99.90;;;;;;4953135;28;1307;-64
2022/12/22 17:24:03;;;;;;;;;;;7.00;99.90;;;;;;4949947;29;1447;-64
2022/12/22 17:26:30;;;;;;;;;;;7.00;99.90;;;;;;4952053;28;1222;-64
2022/12/22 17:28:56;;;;;;;;;;;7.00;99.90;;;;;;4950905;29;1196;-64
2022/12/22 17:31:22;;;;;;;;;;;7.10;99.90;;;;;;4951813;28;1262;-64
2022/12/22 17:33:48;;;;;;;;;;;7.00;99.90;;;;;;4951786;28;1222;-64
2022/12/22 17:36:16;;;;;;;;;;;7.00;99.90;;;;;;4951618;28;1087;-64
2022/12/22 17:38:41;;;;;;;;;;;7.00;99.90;;;;;;4950730;28;1906;-64
2022/12/22 17:41:11;;;;;;;;;;;7.00;99.90;;;;;;4946806;28;3460;-64
2022/12/22 17:43:37;;;;;;;;;;;7.00;99.90;;;;;;4937009;29;1273;-64
2022/12/22 17:46:04;;;;;;;;;;;7.00;99.90;;;;;;4940567;29;1195;-64
2022/12/22 17:48:30;;;;;;;;;;;7.00;99.90;;;;;;4951470;28;1247;-64
2022/12/22 17:50:55;;;;;;;;;;;7.00;99.90;;;;;;4950656;28;1234;-64
2022/12/22 17:53:21;;;;;;;;;;;6.80;99.90;;;;;;4951211;28;1298;-64
2022/12/22 17:55:48;;;;;;;;;;;7.00;99.90;;;;;;4953253;28;1199;-64
2022/12/22 17:58:14;;;;;;;;;;;7.00;99.90;;;;;;4950314;28;1281;-64
2022/12/22 18:00:41;;;;;;;;;;;7.70;99.90;;;;;;4948631;28;1914;-64
2022/12/22 18:03:10;;;;;;;;;;;7.00;99.90;;;;;;4950973;28;1313;-64
2022/12/22 18:05:38;;;;;;;;;;;7.00;99.90;;;;;;4951551;28;1246;-64
2022/12/22 18:08:04;;;;;;;;;;;7.00;99.90;;;;;;4949894;28;1305;-64
2022/12/22 18:10:31;;;;;;;;;;;7.00;99.90;;;;;;4953051;28;1045;-64
2022/12/22 18:12:58;;;;;;;;;;;6.90;99.90;;;;;;4937601;29;3603;-64
2022/12/22 18:15:24;;;;;;;;;;;6.90;99.90;;;;;;4950215;28;1004;-64
2022/12/22 18:17:51;;;;;;;;;;;6.90;99.90;;;;;;4950540;28;3527;-64
2022/12/22 18:20:18;;;;;;;;;;;6.90;99.90;;;;;;4950889;28;2683;-64
2022/12/22 18:22:44;;;;;;;;;;;6.90;99.90;;;;;;4959007;28;1096;-64
2022/12/22 18:25:18;;;;;;;;;;;6.90;99.90;;;;;;4950653;29;1053;-65
2022/12/22 18:27:43;;;;;;;;;;;6.80;99.90;;;;;;4948013;28;2383;-64